Time;durP1;ratioP1;P1;durP2;ratioP2;P2;SDS_P1;SDS_P2;PMS_P1;PMS_P2;Temp;Humidity;BMP_temperature;BMP_pressure;BME280_temperature;BME280_humidity;BME280_pressure;Samples;Min_cycle;Max_cycle;Signal;HPM_P1;HPM_P2
2022/02/28 00:00:37;;;;;;;6.03;3.50;;;;;;;21.11;34.61;103233.72;5033956;28;20098;-62
2022/02/28 00:03:03;;;;;;;4.80;3.20;;;;;;;21.03;34.67;103220.28;5032912;28;20044;-62
2022/02/28 00:05:29;;;;;;;4.75;3.13;;;;;;;21.03;34.62;103231.72;5035138;28;20439;-63
2022/02/28 00:07:55;;;;;;;5.47;3.30;;;;;;;21.02;34.80;103230.06;5028121;28;20087;-63
2022/02/28 00:10:22;;;;;;;4.47;3.33;;;;;;;21.01;34.66;103230.19;5036422;28;20044;-62
2022/02/28 00:12:47;;;;;;;5.93;3.95;;;;;;;20.97;34.89;103232.22;5032797;28;20045;-63
2022/02/28 00:15:15;;;;;;;4.35;2.85;;;;;;;20.95;34.76;103233.31;5033185;28;20284;-63
2022/02/28 00:17:41;;;;;;;4.30;3.10;;;;;;;20.93;34.72;103233.47;5036024;28;20059;-63
2022/02/28 00:20:10;;;;;;;5.88;3.35;;;;;;;20.89;34.90;103237.34;5030518;28;20028;-63
2022/02/28 00:22:36;;;;;;;6.03;3.78;;;;;;;20.84;34.82;103231.59;5037010;28;20036;-62
2022/02/28 00:25:02;;;;;;;6.13;3.78;;;;;;;20.81;34.90;103235.31;5032746;28;20048;-63
2022/02/28 00:27:28;;;;;;;5.57;3.65;;;;;;;20.79;34.76;103244.38;5033772;28;20048;-62
2022/02/28 00:29:54;;;;;;;5.35;3.55;;;;;;;20.74;34.83;103236.81;5034241;28;21863;-62
2022/02/28 00:32:20;;;;;;;5.47;3.63;;;;;;;20.71;34.91;103239.72;5038994;28;20044;-62
2022/02/28 00:34:46;;;;;;;4.43;3.55;;;;;;;20.71;34.96;103250.31;5032136;28;20061;-64
2022/02/28 00:37:12;;;;;;;5.28;3.70;;;;;;;20.71;34.78;103247.66;5020633;28;20601;-64
2022/02/28 00:39:38;;;;;;;4.72;3.50;;;;;;;20.70;34.86;103250.44;5036816;28;20572;-64
2022/02/28 00:42:04;;;;;;;3.78;3.00;;;;;;;20.66;34.87;103249.03;5032772;28;20048;-64
2022/02/28 00:44:29;;;;;;;4.07;3.00;;;;;;;20.61;34.98;103246.72;5038826;28;20756;-64
2022/02/28 00:46:55;;;;;;;5.40;3.60;;;;;;;20.49;34.86;103230.06;5037633;28;20075;-62
2022/02/28 00:49:20;;;;;;;6.57;3.47;;;;;;;20.61;34.88;103252.03;5032594;28;20053;-62
2022/02/28 00:51:47;;;;;;;4.25;3.13;;;;;;;20.60;34.84;103246.84;5030533;28;20118;-62
2022/02/28 00:54:13;;;;;;;5.65;3.50;;;;;;;20.54;34.75;103247.38;5037370;28;20847;-62
2022/02/28 00:56:39;;;;;;;4.45;3.33;;;;;;;20.54;34.80;103239.44;5035447;28;20029;-62
2022/02/28 00:59:04;;;;;;;6.82;3.50;;;;;;;20.50;34.81;103239.69;5065846;28;20579;-62
2022/02/28 01:01:31;;;;;;;4.70;3.35;;;;;;;20.50;34.81;103239.69;5037582;28;20037;-63
2022/02/28 01:03:57;;;;;;;5.15;3.65;;;;;;;20.47;34.79;103244.41;5032260;28;20120;-62
2022/02/28 01:06:22;;;;;;;4.80;3.28;;;;;;;20.47;34.90;103236.47;5034052;28;20037;-63
2022/02/28 01:08:48;;;;;;;5.47;3.78;;;;;;;20.47;34.78;103236.47;5034258;28;20043;-63
2022/02/28 01:11:14;;;;;;;5.70;3.60;;;;;;;20.45;34.75;103241.84;5035091;28;20053;-63
2022/02/28 01:13:39;;;;;;;6.57;3.80;;;;;;;20.39;34.95;103233.56;5035357;28;20477;-64
2022/02/28 01:16:05;;;;;;;4.35;3.22;;;;;;;20.40;34.84;103236.06;5027731;28;20092;-63
2022/02/28 01:18:30;;;;;;;6.28;3.80;;;;;;;20.34;34.77;103225.16;5033563;28;20076;-63
2022/02/28 01:20:56;;;;;;;6.07;3.47;;;;;;;20.36;34.79;103232.00;5032015;28;20483;-63
2022/02/28 01:23:21;;;;;;;5.38;3.78;;;;;;;20.36;34.78;103234.66;5042186;28;20037;-63
2022/02/28 01:25:47;;;;;;;4.20;3.20;;;;;;;20.35;34.75;103227.69;5035996;28;20523;-63
2022/02/28 01:28:13;;;;;;;6.13;3.50;;;;;;;20.35;34.79;103230.31;5039699;28;20063;-63
2022/02/28 01:30:39;;;;;;;3.92;3.28;;;;;;;20.30;34.87;103229.03;5053857;28;20033;-63
2022/02/28 01:33:05;;;;;;;5.10;3.42;;;;;;;20.15;34.80;103202.84;5038134;28;20087;-63
2022/02/28 01:35:31;;;;;;;5.68;3.40;;;;;;;20.25;34.85;103226.72;5038416;28;20037;-63
2022/02/28 01:37:57;;;;;;;5.43;3.60;;;;;;;20.19;34.82;103214.84;5067043;28;20627;-63
2022/02/28 01:40:24;;;;;;;4.78;3.53;;;;;;;20.23;34.83;103216.28;5037002;28;20033;-63
2022/02/28 01:42:50;;;;;;;5.53;3.33;;;;;;;20.20;34.90;103216.53;5036462;28;20048;-63
2022/02/28 01:45:21;;;;;;;4.70;3.58;;;;;;;20.19;34.95;103217.50;5051911;28;20044;-63
2022/02/28 01:47:48;;;;;;;5.43;3.58;;;;;;;20.16;34.85;103216.91;5067280;28;20721;-63
2022/02/28 01:50:14;;;;;;;5.25;3.60;;;;;;;20.11;34.65;103209.34;5037441;28;20403;-63
2022/02/28 01:52:40;;;;;;;5.45;3.50;;;;;;;20.14;34.92;103210.91;5033032;28;20060;-63
2022/02/28 01:55:08;;;;;;;6.57;3.75;;;;;;;20.08;34.93;103206.94;5035262;28;20068;-63
2022/02/28 01:57:34;;;;;;;5.75;3.65;;;;;;;20.11;34.79;103205.88;5035845;28;20045;-63
2022/02/28 01:59:59;;;;;;;4.80;3.33;;;;;;;20.08;34.87;103203.44;5036063;28;20128;-63
2022/02/28 02:02:25;;;;;;;5.38;3.50;;;;;;;20.08;34.94;103199.00;5036983;28;20785;-63
2022/02/28 02:04:51;;;;;;;5.45;3.50;;;;;;;20.06;34.83;103198.28;5036752;28;20055;-63
2022/02/28 02:07:17;;;;;;;4.68;3.13;;;;;;;20.01;34.86;103194.34;5033850;28;20037;-63
2022/02/28 02:09:42;;;;;;;5.88;3.70;;;;;;;20.02;34.91;103206.59;5036902;28;20033;-63
2022/02/28 02:12:09;;;;;;;5.15;3.45;;;;;;;20.01;34.86;103200.47;5017703;28;20040;-63
2022/02/28 02:14:36;;;;;;;4.47;3.50;;;;;;;19.88;34.98;103182.09;5068536;28;20041;-63
2022/02/28 02:17:02;;;;;;;5.38;3.80;;;;;;;19.98;34.93;103192.78;5037757;28;20065;-63
2022/02/28 02:19:28;;;;;;;6.90;3.65;;;;;;;19.97;34.89;103195.56;5049915;28;20040;-63
2022/02/28 02:21:54;;;;;;;5.35;3.35;;;;;;;19.97;34.94;103200.84;5030686;28;20037;-63
2022/02/28 02:24:19;;;;;;;4.05;3.40;;;;;;;19.94;34.79;103188.72;5065540;28;20040;-63
2022/02/28 02:26:45;;;;;;;5.43;3.72;;;;;;;19.91;34.87;103188.94;5026148;28;20068;-63
2022/02/28 02:29:10;;;;;;;4.13;3.55;;;;;;;19.89;34.90;103180.28;5036963;28;20033;-63
2022/02/28 02:31:36;;;;;;;5.97;3.70;;;;;;;19.91;34.95;103189.78;5040958;28;20041;-63
2022/02/28 02:34:01;;;;;;;5.80;3.67;;;;;;;19.86;34.99;103189.31;5029188;28;20057;-62
2022/02/28 02:36:28;;;;;;;4.63;3.55;;;;;;;19.83;34.80;103184.28;5038963;28;20294;-63
2022/02/28 02:38:54;;;;;;;5.88;4.07;;;;;;;19.83;34.79;103186.91;5033992;28;20507;-63
2022/02/28 02:41:20;;;;;;;5.57;3.70;;;;;;;19.82;34.78;103187.88;5021119;28;20040;-63
2022/02/28 02:43:46;;;;;;;5.00;3.70;;;;;;;19.78;34.94;103185.63;5053487;28;20055;-63
2022/02/28 02:46:12;;;;;;;4.90;3.55;;;;;;;19.77;34.99;103184.78;5045669;28;20101;-63
2022/02/28 02:48:37;;;;;;;6.07;3.72;;;;;;;19.76;34.96;103184.91;5034236;28;20033;-63
2022/02/28 02:51:07;;;;;;;;;;;;;;;19.78;35.00;103189.09;5038000;28;20495;-63
2022/02/28 02:53:33;;;;;;;5.53;3.55;;;;;;;19.77;34.90;103199.78;5067148;28;20004;-63
2022/02/28 02:56:01;;;;;;;4.43;3.55;;;;;;;19.76;34.89;103192.84;5033076;28;20103;-63
2022/02/28 02:58:28;;;;;;;5.97;3.97;;;;;;;19.75;34.93;103188.47;5021852;28;20124;-63
2022/02/28 03:00:54;;;;;;;5.93;3.90;;;;;;;19.74;34.95;103195.56;5035131;28;20063;-63
2022/02/28 03:03:34;;;;;;;6.72;4.25;;;;;;;19.69;34.92;103181.88;5037375;28;21629;-63
2022/02/28 03:06:02;;;;;;;6.03;3.83;;;;;;;19.68;35.02;103185.50;5035522;28;20029;-63
2022/02/28 03:08:29;;;;;;;3.95;3.55;;;;;;;19.67;35.04;103191.75;5064802;28;20032;-63
2022/02/28 03:10:55;;;;;;;6.25;3.83;;;;;;;19.69;35.07;103186.31;5040127;28;20052;-63
2022/02/28 03:13:21;;;;;;;4.95;3.63;;;;;;;19.68;35.10;103182.00;5031894;28;20943;-63
2022/02/28 03:15:47;;;;;;;5.15;3.90;;;;;;;19.66;34.93;103182.13;5047551;28;20068;-63
2022/02/28 03:18:17;;;;;;;5.32;4.00;;;;;;;19.66;35.02;103183.94;5034890;28;20644;-63
2022/02/28 03:20:43;;;;;;;5.43;3.67;;;;;;;19.64;35.09;103180.56;5035200;28;20045;-62
2022/02/28 03:23:08;;;;;;;4.97;3.63;;;;;;;19.64;35.10;103180.56;5035522;28;20047;-65
2022/02/28 03:25:34;;;;;;;4.70;3.75;;;;;;;19.58;35.15;103187.19;5035833;28;20457;-63
2022/02/28 03:28:03;;;;;;;6.30;3.75;;;;;;;19.61;35.07;103190.44;5040009;28;20475;-63
2022/02/28 03:30:29;;;;;;;6.18;3.83;;;;;;;19.59;35.03;103188.88;5036916;28;20383;-63
2022/02/28 03:32:55;;;;;;;6.00;3.78;;;;;;;19.54;35.09;103181.28;5067407;28;20053;-63
2022/02/28 03:35:21;;;;;;;6.03;3.97;;;;;;;19.58;34.92;103179.28;5047905;28;20045;-63
2022/02/28 03:37:47;;;;;;;4.43;3.70;;;;;;;19.54;35.21;103178.66;5033925;28;20456;-63
2022/02/28 03:40:13;;;;;;;4.95;3.90;;;;;;;19.53;34.94;103181.38;5035569;28;20056;-63
2022/02/28 03:42:41;;;;;;;6.25;3.92;;;;;;;19.42;34.90;103158.47;5035381;28;20036;-63
2022/02/28 03:45:08;;;;;;;4.93;3.92;;;;;;;19.52;35.03;103183.19;5037307;28;20024;-62
2022/02/28 03:47:34;;;;;;;4.95;3.83;;;;;;;19.51;35.03;103186.78;5033607;28;20068;-63
2022/02/28 03:50:37;;;;;;;5.97;3.67;;;;;;;19.49;34.98;103185.22;5036329;28;20043;-63
2022/02/28 03:53:03;;;;;;;4.45;3.58;;;;;;;19.48;34.94;103176.47;5036899;28;20127;-63
2022/02/28 03:55:34;;;;;;;5.03;3.78;;;;;;;19.47;34.98;103182.72;5034863;28;20072;-63
2022/02/28 03:57:59;;;;;;;4.40;3.63;;;;;;;19.44;35.15;103187.41;5034130;28;20131;-63
2022/02/28 04:00:29;;;;;;;5.35;3.60;;;;;;;19.43;34.99;103180.44;5039065;28;20037;-63
2022/02/28 04:02:55;;;;;;;4.78;3.72;;;;;;;19.42;34.96;103187.53;5036437;28;20136;-62
2022/02/28 04:05:21;;;;;;;6.65;3.75;;;;;;;19.43;34.97;103183.91;5034557;28;20065;-63
2022/02/28 04:07:49;;;;;;;5.07;3.80;;;;;;;19.44;34.92;103187.41;5053721;28;20045;-63
2022/02/28 04:10:15;;;;;;;5.05;3.50;;;;;;;19.41;35.16;103183.22;5032811;28;20044;-63
2022/02/28 04:12:43;;;;;;;5.20;3.95;;;;;;;19.39;35.03;103187.78;5035737;28;20040;-63
2022/02/28 04:15:09;;;;;;;6.55;4.18;;;;;;;19.36;35.21;103185.34;5028433;28;20040;-63
2022/02/28 04:17:35;;;;;;;5.47;4.07;;;;;;;19.37;35.03;103183.53;5037988;28;20032;-63
2022/02/28 04:20:28;;;;;;;4.78;4.03;;;;;;;19.37;35.11;103184.38;5034659;28;20038;-63
2022/02/28 04:22:54;;;;;;;4.78;3.83;;;;;;;19.35;35.21;103180.19;5039017;28;20042;-65
2022/02/28 04:25:20;;;;;;;5.28;3.75;;;;;;;19.32;35.12;103170.69;5018180;28;20037;-65
2022/02/28 04:27:45;;;;;;;4.55;3.60;;;;;;;19.30;34.90;103176.09;5032357;28;20068;-65
2022/02/28 04:30:15;;;;;;;4.32;3.88;;;;;;;19.29;35.21;103177.06;5029273;28;20033;-64
2022/02/28 04:32:41;;;;;;;4.35;3.60;;;;;;;19.31;35.19;103172.50;5032006;28;20477;-65
2022/02/28 04:35:09;;;;;;;6.22;3.95;;;;;;;19.29;35.04;103177.06;5038487;28;20067;-65
2022/02/28 04:37:37;;;;;;;5.95;3.90;;;;;;;19.28;35.19;103180.66;5031265;28;20068;-63
2022/02/28 04:40:05;;;;;;;6.90;4.35;;;;;;;19.28;35.13;103169.25;5032430;28;20063;-63
2022/02/28 04:42:34;;;;;;;4.80;3.50;;;;;;;19.27;35.21;103178.16;5034074;28;20126;-63
2022/02/28 04:45:00;;;;;;;5.35;3.67;;;;;;;19.21;35.06;103182.13;5034350;28;20045;-63
2022/02/28 04:47:25;;;;;;;4.80;3.55;;;;;;;19.21;35.20;103168.91;5038563;28;20033;-63
2022/02/28 04:50:11;;;;;;;4.75;3.50;;;;;;;19.18;35.26;103173.56;5005761;28;20037;-63
2022/02/28 04:52:37;;;;;;;7.03;3.90;;;;;;;19.19;35.20;103173.44;5038475;28;20039;-63
2022/02/28 04:55:04;;;;;;;5.03;3.85;;;;;;;19.20;35.26;103171.66;5031167;28;20037;-63
2022/02/28 04:57:37;;;;;;;5.15;3.75;;;;;;;19.20;35.18;103166.34;5039387;28;20064;-63
2022/02/28 05:00:04;;;;;;;6.38;3.58;;;;;;;19.19;35.05;103172.59;5018992;28;20047;-63
2022/02/28 05:02:30;;;;;;;7.18;3.80;;;;;;;19.18;35.27;103171.75;5051819;28;20728;-63
2022/02/28 05:05:16;;;;;;;5.45;3.40;;;;;;;19.14;35.17;103172.13;5036082;28;20559;-64
2022/02/28 05:07:41;;;;;;;4.22;3.10;;;;;;;19.18;35.30;103174.41;5037207;28;20067;-63
2022/02/28 05:10:08;;;;;;;4.40;3.35;;;;;;;19.15;35.23;103174.66;5041362;28;20082;-63
2022/02/28 05:12:34;;;;;;;5.32;3.55;;;;;;;19.14;35.35;103172.97;5033775;28;21873;-63
2022/02/28 05:14:59;;;;;;;5.57;3.50;;;;;;;19.13;35.29;103171.28;5054770;28;20095;-65
2022/02/28 05:17:25;;;;;;;5.60;3.53;;;;;;;19.17;35.44;103171.88;5063746;28;20474;-65
2022/02/28 05:19:50;;;;;;;4.90;3.40;;;;;;;19.17;35.44;103171.88;5038719;28;20056;-65
2022/02/28 05:22:16;;;;;;;4.75;3.15;;;;;;;19.18;35.42;103170.91;5063028;28;20090;-65
2022/02/28 05:24:47;;;;;;;4.18;3.22;;;;;;;19.17;35.30;103169.25;5025124;28;20087;-65
2022/02/28 05:27:12;;;;;;;4.13;3.22;;;;;;;19.31;35.00;103166.38;5036881;28;20719;-65
2022/02/28 05:29:38;;;;;;;6.00;3.53;;;;;;;19.57;34.88;103157.28;5039323;28;20069;-65
2022/02/28 05:32:04;;;;;;;5.38;3.50;;;;;;;20.09;34.42;103170.75;5039035;28;20052;-66
2022/02/28 05:34:48;;;;;;;5.03;3.60;;;;;;;20.61;33.71;103161.19;5035373;28;20068;-65
2022/02/28 05:37:19;;;;;;;3.92;3.10;;;;;;;21.01;33.10;103163.97;5027109;28;20545;-65
2022/02/28 05:39:51;;;;;;;3.40;2.83;;;;;;;21.21;32.69;103160.44;5034998;28;20457;-65
2022/02/28 05:42:22;;;;;;;4.45;3.25;;;;;;;21.38;32.50;103143.94;5041343;28;20372;-65
2022/02/28 05:44:51;;;;;;;4.65;3.55;;;;;;;21.55;32.60;103154.88;5036288;28;20132;-65
2022/02/28 05:47:17;;;;;;;4.70;3.10;;;;;;;21.78;32.13;103166.09;5037962;28;20044;-65
2022/02/28 05:49:45;;;;;;;3.85;3.03;;;;;;;21.79;32.31;103160.66;5023602;28;20135;-65
2022/02/28 05:52:10;;;;;;;4.80;3.60;;;;;;;21.83;32.01;103147.94;5036637;28;20059;-65
2022/02/28 05:54:37;;;;;;;4.53;3.30;;;;;;;21.84;32.13;103152.28;5040093;28;20506;-65
2022/02/28 05:57:04;;;;;;;3.67;3.08;;;;;;;21.82;32.22;103151.56;5035945;28;20170;-65
2022/02/28 05:59:30;;;;;;;4.95;3.63;;;;;;;21.77;32.39;103154.66;5039081;28;20079;-65
2022/02/28 06:01:55;;;;;;;5.03;3.35;;;;;;;21.84;32.37;103157.59;5035749;28;20136;-64
2022/02/28 06:04:21;;;;;;;4.10;3.00;;;;;;;21.79;32.29;103155.34;5039781;28;20048;-65
2022/02/28 06:06:46;;;;;;;4.40;3.17;;;;;;;21.65;32.62;103161.88;5037659;28;20149;-65
2022/02/28 06:09:12;;;;;;;4.35;3.05;;;;;;;21.67;32.60;103159.06;5037972;28;20140;-65
2022/02/28 06:11:37;;;;;;;4.65;3.05;;;;;;;21.67;32.59;103165.22;5038994;28;20040;-65
2022/02/28 06:14:03;;;;;;;3.45;3.10;;;;;;;21.71;32.44;103165.78;5033693;28;20434;-64
2022/02/28 06:16:28;;;;;;;3.83;3.05;;;;;;;21.78;32.62;103169.59;5042428;28;20459;-65
2022/02/28 06:18:54;;;;;;;3.90;3.10;;;;;;;21.88;32.36;103174.88;5031253;28;20039;-65
2022/02/28 06:21:19;;;;;;;3.65;2.95;;;;;;;21.88;32.33;103162.47;5036874;28;20318;-65
2022/02/28 06:23:45;;;;;;;5.63;3.38;;;;;;;21.96;32.34;103167.94;5034483;28;20094;-65
2022/02/28 06:26:11;;;;;;;3.58;2.90;;;;;;;22.02;32.18;103180.66;5036652;28;20783;-65
2022/02/28 06:28:37;;;;;;;5.60;3.30;;;;;;;22.08;32.29;103183.75;5038794;28;20040;-65
2022/02/28 06:31:04;;;;;;;3.72;3.10;;;;;;;22.11;32.03;103164.91;5036189;28;20036;-65
2022/02/28 06:33:30;;;;;;;4.35;3.10;;;;;;;21.98;32.29;103173.09;5038996;28;20107;-65
2022/02/28 06:35:56;;;;;;;3.88;2.90;;;;;;;21.75;32.52;103172.50;5035387;28;21894;-65
2022/02/28 06:38:22;;;;;;;3.20;2.90;;;;;;;21.63;32.85;103165.63;5036734;28;20028;-65
2022/02/28 06:40:49;;;;;;;5.45;3.45;;;;;;;21.53;32.84;103164.75;5035792;28;20033;-65
2022/02/28 06:43:24;;;;;;;3.85;2.97;;;;;;;21.40;33.01;103160.53;5039189;28;20045;-64
2022/02/28 06:45:51;;;;;;;3.60;3.08;;;;;;;21.34;33.38;103161.06;5034234;28;20041;-65
2022/02/28 06:48:17;;;;;;;5.07;3.30;;;;;;;21.25;33.31;103167.16;5033807;28;20033;-65
2022/02/28 06:50:45;;;;;;;4.18;3.00;;;;;;;21.24;33.33;103161.97;5038601;28;20059;-62
2022/02/28 06:53:11;;;;;;;4.53;3.40;;;;;;;21.15;33.30;103153.00;5032031;28;20029;-65
2022/02/28 06:55:40;;;;;;;4.30;3.15;;;;;;;21.23;33.47;103160.28;5038324;28;20036;-65
2022/02/28 06:58:07;;;;;;;4.57;3.05;;;;;;;21.56;33.08;103175.09;5031845;28;20040;-64
2022/02/28 07:00:33;;;;;;;6.07;3.28;;;;;;;21.78;32.49;103174.88;5047826;28;20029;-64
2022/02/28 07:03:07;;;;;;;4.20;3.05;;;;;;;22.06;32.38;103172.44;5034558;28;20028;-65
2022/02/28 07:05:34;;;;;;;4.68;3.25;;;;;;;22.00;32.30;103169.34;5038986;28;20074;-64
2022/02/28 07:08:00;;;;;;;4.85;3.00;;;;;;;21.94;32.09;103179.66;5032321;28;20045;-65
2022/02/28 07:10:26;;;;;;;5.10;3.25;;;;;;;21.84;32.30;103189.41;5032872;28;20502;-65
2022/02/28 07:12:52;;;;;;;5.03;3.28;;;;;;;21.68;32.77;103192.56;5036291;28;20124;-65
2022/02/28 07:15:17;;;;;;;3.72;3.03;;;;;;;21.54;32.86;103182.34;5031983;28;20124;-64
2022/02/28 07:17:43;;;;;;;4.28;3.00;;;;;;;21.44;32.89;103192.91;5035516;28;20160;-64
2022/02/28 07:20:10;;;;;;;4.35;3.38;;;;;;;21.44;32.93;103197.38;5035046;28;20159;-64
2022/02/28 07:22:35;;;;;;;6.03;3.33;;;;;;;21.35;33.28;103206.94;5073127;28;20033;-64
2022/02/28 07:25:01;;;;;;;4.57;3.42;;;;;;;21.32;33.19;103217.81;5039016;28;20092;-64
2022/02/28 07:27:26;;;;;;;4.25;2.88;;;;;;;21.29;33.17;103216.28;5037499;28;20060;-64
2022/02/28 07:29:52;;;;;;;4.72;3.35;;;;;;;21.23;33.42;103218.59;5036342;28;20049;-64
2022/02/28 07:32:17;;;;;;;4.25;3.38;;;;;;;21.26;33.27;103207.75;5033512;28;20037;-64
2022/02/28 07:34:43;;;;;;;3.92;3.15;;;;;;;21.46;33.05;103212.19;5043931;28;20134;-64
2022/02/28 07:37:09;;;;;;;4.68;3.08;;;;;;;21.54;32.77;103207.03;5034555;28;20025;-64
2022/02/28 07:39:34;;;;;;;5.47;3.20;;;;;;;21.54;32.82;103209.69;5039506;28;20041;-64
2022/02/28 07:42:00;;;;;;;3.60;3.05;;;;;;;21.44;33.08;103211.47;5034485;28;20390;-64
2022/02/28 07:44:27;;;;;;;4.75;3.28;;;;;;;21.39;32.96;103206.56;5035491;28;20056;-64
2022/02/28 07:46:53;;;;;;;4.13;3.50;;;;;;;21.38;33.13;103210.19;5035786;28;20487;-64
2022/02/28 07:49:19;;;;;;;4.70;3.22;;;;;;;21.36;33.19;103212.16;5034564;28;20065;-63
2022/02/28 07:51:45;;;;;;;5.25;3.53;;;;;;;21.35;32.93;103214.91;5042433;28;20067;-64
2022/02/28 07:54:10;;;;;;;4.95;3.50;;;;;;;21.28;33.23;103213.75;5034606;28;20033;-63
2022/02/28 07:56:36;;;;;;;5.13;3.40;;;;;;;21.18;33.22;103218.97;5038440;28;20592;-63
2022/02/28 07:59:02;;;;;;;5.28;3.40;;;;;;;21.11;33.38;103210.72;5032418;28;20117;-63
2022/02/28 08:01:27;;;;;;;4.45;3.28;;;;;;;21.06;33.67;103220.88;5036944;28;20078;-63
2022/02/28 08:03:53;;;;;;;3.90;3.30;;;;;;;21.10;33.46;103224.94;5038430;28;20045;-63
2022/02/28 08:06:18;;;;;;;4.05;3.38;;;;;;;21.25;33.29;103216.69;5039836;28;20562;-63
2022/02/28 08:08:44;;;;;;;3.78;3.15;;;;;;;21.35;33.23;103217.56;5038455;28;20102;-63
2022/02/28 08:11:09;;;;;;;5.68;3.90;;;;;;;21.41;33.07;103217.03;5038781;28;20370;-64
2022/02/28 08:13:35;;;;;;;4.90;3.47;;;;;;;21.50;32.90;103212.75;5022314;28;20102;-63
2022/02/28 08:16:01;;;;;;;3.70;3.15;;;;;;;21.31;33.31;103198.44;5035426;28;20044;-64
2022/02/28 08:18:27;;;;;;;4.82;3.30;;;;;;;21.35;33.17;103223.69;5033759;28;20048;-64
2022/02/28 08:20:52;;;;;;;4.65;3.47;;;;;;;21.37;33.06;103221.78;5034893;28;20725;-64
2022/02/28 08:23:18;;;;;;;4.20;3.45;;;;;;;21.35;33.23;103230.81;5041519;28;20060;-64
2022/02/28 08:25:45;;;;;;;4.38;3.22;;;;;;;21.28;33.36;103232.31;5033312;28;20384;-64
2022/02/28 08:28:13;;;;;;;4.22;3.10;;;;;;;21.25;33.48;103229.94;5040725;28;20052;-64
2022/02/28 08:30:39;;;;;;;4.05;3.30;;;;;;;21.15;33.51;103229.00;5039092;28;20099;-64
2022/02/28 08:33:04;;;;;;;5.38;3.40;;;;;;;21.17;33.49;103235.00;5071823;28;20053;-64
2022/02/28 08:35:30;;;;;;;4.90;3.15;;;;;;;21.10;33.50;103224.94;5043239;28;20044;-64
2022/02/28 08:37:56;;;;;;;4.68;3.10;;;;;;;21.16;33.60;103239.47;5042567;28;20045;-64
2022/02/28 08:40:22;;;;;;;5.75;3.60;;;;;;;21.16;33.32;103233.31;5040697;28;20346;-64
2022/02/28 08:42:48;;;;;;;5.45;3.70;;;;;;;21.23;33.31;103227.38;5039883;28;20071;-64
2022/02/28 08:45:13;;;;;;;3.85;3.10;;;;;;;21.43;33.11;103231.00;5044166;28;20044;-64
2022/02/28 08:47:39;;;;;;;5.55;3.67;;;;;;;21.48;33.09;103233.25;5039411;28;20040;-64
2022/02/28 08:50:06;;;;;;;7.00;3.65;;;;;;;21.47;33.19;103227.09;5044519;28;20067;-64
2022/02/28 08:52:32;;;;;;;4.00;3.25;;;;;;;21.49;33.14;103235.75;5045996;28;20060;-64
2022/02/28 08:55:02;;;;;;;4.38;3.17;;;;;;;21.38;33.34;103226.09;5043925;28;20132;-64
2022/02/28 08:57:28;;;;;;;5.40;4.28;;;;;;;21.40;33.30;103232.09;5023615;28;20047;-64
2022/02/28 08:59:53;;;;;;;5.03;3.42;;;;;;;21.30;33.46;103231.22;5039025;28;20033;-64
2022/02/28 09:02:19;;;;;;;5.40;3.60;;;;;;;21.31;33.66;103218.78;5042741;28;20098;-64
2022/02/28 09:04:44;;;;;;;4.40;3.30;;;;;;;21.25;33.92;103217.53;5037706;28;20033;-65
2022/02/28 09:07:10;;;;;;;5.22;3.60;;;;;;;21.26;33.78;103221.00;5042705;28;20045;-64
2022/02/28 09:09:36;;;;;;;4.18;3.30;;;;;;;21.19;34.07;103227.78;5038709;28;20040;-65
2022/02/28 09:12:02;;;;;;;3.83;3.22;;;;;;;21.18;33.97;103237.50;5041457;28;20845;-65
2022/02/28 09:14:28;;;;;;;3.97;3.38;;;;;;;21.15;34.11;103236.94;5041650;28;20498;-65
2022/02/28 09:16:53;;;;;;;4.45;3.45;;;;;;;21.15;34.03;103240.44;5020271;28;20036;-64
2022/02/28 09:19:19;;;;;;;4.63;3.28;;;;;;;21.25;34.00;103237.88;5043077;28;20041;-65
2022/02/28 09:21:45;;;;;;;5.10;3.80;;;;;;;21.48;33.60;103251.81;5037561;28;20029;-64
2022/02/28 09:24:10;;;;;;;4.60;3.00;;;;;;;21.69;33.31;103245.47;5039032;28;20041;-64
2022/02/28 09:26:38;;;;;;;4.68;3.40;;;;;;;21.90;33.04;103234.81;5036458;28;20041;-64
2022/02/28 09:29:05;;;;;;;5.15;3.67;;;;;;;21.93;32.81;103236.34;5039948;28;20512;-64
2022/02/28 09:31:32;;;;;;;5.72;3.60;;;;;;;21.83;33.41;103235.47;5037906;28;20225;-64
2022/02/28 09:33:57;;;;;;;7.65;3.50;;;;;;;21.93;33.45;103241.66;5006309;28;20077;-66
2022/02/28 09:36:23;;;;;;;4.22;3.33;;;;;;;21.88;33.29;103241.22;5048353;28;20033;-66
2022/02/28 09:38:48;;;;;;;5.95;3.65;;;;;;;21.88;33.70;103247.34;5039222;28;20868;-68
2022/02/28 09:41:17;;;;;;;5.25;3.50;;;;;;;22.05;33.38;103247.72;5029107;28;20071;-71
2022/02/28 09:43:43;;;;;;;5.93;3.63;;;;;;;22.00;33.29;103238.31;5044690;28;20040;-71
2022/02/28 09:46:28;;;;;;;4.65;3.28;;;;;;;22.03;33.91;103231.91;5048395;28;20164;-70
2022/02/28 09:49:13;;;;;;;4.78;3.42;;;;;;;22.02;33.70;103225.75;5009035;28;20643;-68
2022/02/28 09:51:57;;;;;;;6.07;3.75;;;;;;;22.00;34.27;103226.88;5038567;28;20068;-72
2022/02/28 09:54:41;;;;;;;5.90;3.55;;;;;;;22.03;34.12;103222.13;5031223;28;20112;-67
2022/02/28 09:57:26;;;;;;;5.50;3.67;;;;;;;21.97;34.29;103227.16;5045331;28;20098;-68
2022/02/28 09:59:57;;;;;;;5.55;3.53;;;;;;;21.92;34.18;103226.72;5017152;28;20245;-68
2022/02/28 10:02:27;;;;;;;6.07;3.50;;;;;;;21.92;34.20;103224.06;5049115;28;20545;-67
2022/02/28 10:04:53;;;;;;;4.88;3.50;;;;;;;21.96;34.58;103213.03;5019731;28;20632;-73
2022/02/28 10:07:25;;;;;;;4.63;3.40;;;;;;;21.92;34.30;103213.47;5037641;28;20099;-73
2022/02/28 10:10:12;;;;;;;4.65;3.20;;;;;;;21.92;34.50;103216.09;5046835;28;20028;-69
2022/02/28 10:12:38;;;;;;;4.30;3.10;;;;;;;21.91;34.60;103219.75;5019640;28;20072;-69
2022/02/28 10:15:08;;;;;;;4.55;3.17;;;;;;;21.94;34.37;103211.50;5046434;28;20035;-69
2022/02/28 10:17:47;;;;;;;6.50;3.42;;;;;;;21.92;34.69;103216.94;5008698;28;20041;-67
2022/02/28 10:20:35;;;;;;;5.18;3.65;;;;;;;22.02;34.44;103225.75;5050034;28;20043;-69
2022/02/28 10:23:16;;;;;;;5.25;3.38;;;;;;;21.97;34.65;103221.84;4998042;28;20032;-67
2022/02/28 10:26:00;;;;;;;10.95;3.38;;;;;;;21.95;34.44;103229.09;5048390;28;20051;-66
2022/02/28 10:29:08;;;;;;;5.20;3.65;;;;;;;21.98;34.97;103227.00;4984835;28;20052;-68
2022/02/28 10:31:58;;;;;;;4.68;3.50;;;;;;;21.96;34.60;103228.13;5046389;28;20182;-68
2022/02/28 10:38:19;;;;;;;5.22;3.55;;;;;;;22.10;34.46;103217.16;4998156;28;20076;-69
2022/02/28 10:40:44;;;;;;;5.55;3.67;;;;;;;22.07;34.72;103209.44;5036462;28;20060;-69
2022/02/28 10:43:21;;;;;;;5.20;3.60;;;;;;;22.00;34.80;103214.44;5047554;28;20099;-68
2022/02/28 10:45:47;;;;;;;5.05;3.10;;;;;;;22.02;34.59;103215.13;5019540;28;20402;-67
2022/02/28 10:48:12;;;;;;;5.70;3.33;;;;;;;22.05;34.70;103215.88;5044340;28;20048;-66
2022/02/28 10:50:40;;;;;;;4.63;3.38;;;;;;;21.90;34.96;103221.56;5016779;28;20055;-63
2022/02/28 10:53:11;;;;;;;6.38;3.78;;;;;;;21.96;34.91;103215.69;5048139;28;20037;-68
2022/02/28 10:55:38;;;;;;;5.20;3.40;;;;;;;22.11;34.44;103218.00;5002204;28;20040;-69
2022/02/28 10:58:08;;;;;;;4.15;3.30;;;;;;;22.15;34.46;103208.78;5048197;28;20037;-68
2022/02/28 11:00:54;;;;;;;4.90;3.38;;;;;;;22.18;34.74;103217.28;5004247;28;20074;-68
2022/02/28 11:03:20;;;;;;;3.65;3.13;;;;;;;22.12;34.88;103223.16;5045645;28;20056;-69
2022/02/28 11:05:57;;;;;;;6.50;3.50;;;;;;;22.16;34.57;103210.44;5010710;28;20414;-74
2022/02/28 11:08:24;;;;;;;4.88;3.53;;;;;;;22.13;34.83;103208.06;5047783;28;20036;-73
2022/02/28 11:10:51;;;;;;;4.63;3.47;;;;;;;22.07;34.54;103212.09;5006541;28;20037;-69
2022/02/28 11:13:17;;;;;;;6.03;3.67;;;;;;;21.94;34.92;103208.84;5036124;28;20047;-69
2022/02/28 11:15:49;;;;;;;5.32;3.70;;;;;;;21.85;34.88;103194.56;5026493;27;2011427;-67
2022/02/28 11:18:20;;;;;;;4.68;3.35;;;;;;;21.88;34.92;103196.09;5035617;28;20039;-67
2022/02/28 11:20:50;;;;;;;4.70;3.60;;;;;;;21.81;34.92;103189.69;5074552;28;20085;-66
2022/02/28 11:23:19;;;;;;;;;;;;;;;21.83;35.00;103198.34;5035236;28;20032;-67
2022/02/28 11:25:47;;;;;;;4.28;3.25;;;;;;;21.73;35.16;103202.78;5073305;28;19969;-67
2022/02/28 11:28:13;;;;;;;4.40;3.33;;;;;;;21.76;34.90;103203.38;5033607;28;20028;-68
2022/02/28 11:30:39;;;;;;;3.45;2.90;;;;;;;21.74;35.00;103202.66;5060193;28;20075;-68
2022/02/28 11:33:12;;;;;;;4.05;3.20;;;;;;;21.66;34.85;103203.31;5071707;28;20115;-67